Time;durP1;ratioP1;P1;durP2;ratioP2;P2;SDS_P1;SDS_P2;PMS_P1;PMS_P2;Temp;Humidity;BMP_temperature;BMP_pressure;BME280_temperature;BME280_humidity;BME280_pressure;Samples;Min_cycle;Max_cycle;Signal;HPM_P1;HPM_P2
2022/04/10 00:00:37;;;;;;;;;9.00;9.00;;;;;8.07;54.18;101756.81;5058565;28;45349;-45
2022/04/10 00:03:03;;;;;;;;;12.50;9.00;;;;;7.96;53.89;101749.56;5058076;28;45356;-47
2022/04/10 00:05:29;;;;;;;;;9.25;9.00;;;;;8.09;54.19;101769.00;5058212;28;45495;-46
2022/04/10 00:07:54;;;;;;;;;13.25;11.50;;;;;8.06;54.37;101771.84;5057635;28;46864;-45
2022/04/10 00:10:20;;;;;;;;;13.75;11.25;;;;;8.06;54.00;101771.84;5056120;28;45452;-45
2022/04/10 00:12:45;;;;;;;;;10.75;7.25;;;;;8.03;54.28;101761.47;5056444;28;45350;-45
2022/04/10 00:15:11;;;;;;;;;11.25;9.00;;;;;8.02;54.46;101757.13;5056655;28;45244;-45
2022/04/10 00:17:38;;;;;;;;;10.50;10.25;;;;;7.97;54.94;101744.19;5057867;28;45941;-44
2022/04/10 00:20:05;;;;;;;;;6.00;4.00;;;;;8.00;55.48;101751.91;5059750;28;45278;-48
2022/04/10 00:22:30;;;;;;;;;9.00;9.00;;;;;8.00;53.82;101751.06;5059376;28;45341;-46
2022/04/10 00:24:55;;;;;;;;;14.50;11.25;;;;;7.99;54.07;101747.56;5059586;28;45434;-46
2022/04/10 00:27:21;;;;;;;;;10.75;10.25;;;;;7.97;54.38;101749.50;5060579;28;46135;-47
2022/04/10 00:29:46;;;;;;;;;12.25;10.50;;;;;7.82;55.15;101725.84;5059748;28;45539;-47
2022/04/10 00:32:12;;;;;;;;;8.50;7.75;;;;;7.93;55.87;101747.16;5060508;28;45465;-46
2022/04/10 00:34:37;;;;;;;;;12.50;10.00;;;;;7.93;55.55;101748.00;5060760;28;45324;-47
2022/04/10 00:37:03;;;;;;;;;13.25;10.50;;;;;7.90;55.63;101747.34;5060113;28;47087;-47
2022/04/10 00:39:28;;;;;;;;;9.00;9.00;;;;;7.89;56.02;101745.66;5059345;28;45325;-45
2022/04/10 00:41:54;;;;;;;;;9.75;9.75;;;;;7.87;55.96;101763.44;5059392;28;45336;-47
2022/04/10 00:44:20;;;;;;;;;12.75;9.75;;;;;7.84;56.10;101745.13;5059688;28;45450;-48
2022/04/10 00:46:45;;;;;;;;;12.00;11.25;;;;;7.80;56.05;101741.84;5058986;28;45212;-48
2022/04/10 00:49:11;;;;;;;;;9.75;9.75;;;;;7.80;56.81;101749.78;5059010;28;45448;-46
2022/04/10 00:51:40;;;;;;;;;16.00;12.00;;;;;7.74;56.88;101743.09;5059096;28;45364;-48
2022/04/10 00:54:14;;;;;;;;;11.00;10.25;;;;;7.74;56.08;101743.09;5059225;28;45436;-46
2022/04/10 00:56:40;;;;;;;;;11.25;10.25;;;;;7.74;55.65;101743.09;5058758;28;46483;-46
2022/04/10 00:59:06;;;;;;;;;10.50;10.00;;;;;7.72;56.21;101750.31;5059394;28;45460;-47
2022/04/10 01:01:33;;;;;;;;;13.25;9.00;;;;;7.69;55.79;101745.22;5059325;28;45315;-46
2022/04/10 01:03:58;;;;;;;;;12.25;8.50;;;;;7.66;55.77;101745.41;5060229;28;45420;-45
2022/04/10 01:06:24;;;;;;;;;5.75;5.75;;;;;7.66;54.88;101749.84;5059212;28;45329;-54
2022/04/10 01:08:50;;;;;;;;;5.75;5.75;;;;;7.66;55.18;101744.56;5058552;28;45481;-47
2022/04/10 01:11:16;;;;;;;;;5.00;4.00;;;;;7.63;54.24;101750.94;5058975;28;45411;-46
2022/04/10 01:13:42;;;;;;;;;4.50;4.50;;;;;7.56;54.40;101741.69;5059064;28;45210;-47
2022/04/10 01:16:08;;;;;;;;;5.75;4.25;;;;;7.61;54.77;101749.31;5058208;28;45452;-46
2022/04/10 01:18:35;;;;;;;;;8.75;4.00;;;;;7.60;53.96;101752.94;5058600;28;45369;-48
2022/04/10 01:21:02;;;;;;;;;8.75;5.50;;;;;7.59;53.78;101745.94;5058630;28;45297;-49
2022/04/10 01:23:28;;;;;;;;;5.25;3.25;;;;;7.58;53.55;101746.88;5058595;28;45358;-48
2022/04/10 01:25:54;;;;;;;;;11.00;5.00;;;;;7.58;53.47;101753.00;5058465;28;45427;-46
2022/04/10 01:28:19;;;;;;;;;8.75;6.75;;;;;7.54;54.45;101750.69;5058050;28;45301;-47
2022/04/10 01:30:44;;;;;;;;;8.50;4.00;;;;;7.55;54.45;101750.59;5058665;28;45451;-46
2022/04/10 01:33:10;;;;;;;;;11.00;7.25;;;;;7.52;54.44;101748.16;5058529;28;45359;-47
2022/04/10 01:35:37;;;;;;;;;10.25;6.50;;;;;7.47;53.67;101734.38;5058214;28;47074;-48
2022/04/10 01:38:04;;;;;;;;;8.00;8.00;;;;;7.52;54.51;101753.44;5058138;28;45316;-46
2022/04/10 01:40:30;;;;;;;;;15.25;12.25;;;;;7.49;54.63;101745.69;5058201;28;45284;-46
2022/04/10 01:42:56;;;;;;;;;22.50;15.75;;;;;7.43;55.02;101759.34;5058385;28;45541;-46
2022/04/10 01:45:21;;;;;;;;;14.25;14.25;;;;;7.41;55.56;101754.13;5058145;28;46286;-49
2022/04/10 01:47:53;;;;;;;;;19.25;15.25;;;;;7.36;55.92;101752.75;5058300;28;45343;-46
2022/04/10 01:50:19;;;;;;;;;18.00;13.75;;;;;7.27;56.13;101737.47;5058119;28;45353;-47
2022/04/10 01:52:45;;;;;;;;;21.75;12.50;;;;;7.20;56.61;101721.16;5058246;28;45369;-49
2022/04/10 01:55:11;;;;;;;;;18.00;16.00;;;;;7.32;56.29;101735.38;5057573;28;45942;-46
2022/04/10 01:57:36;;;;;;;;;23.50;19.25;;;;;7.31;56.86;101736.34;5057954;28;45407;-47
2022/04/10 02:00:04;;;;;;;;;27.50;19.25;;;;;7.28;57.38;101733.88;5058082;28;45437;-48
2022/04/10 02:02:29;;;;;;;;;25.00;20.75;;;;;7.18;57.79;101729.19;5058263;28;45329;-47
2022/04/10 02:04:55;;;;;;;;;26.00;23.00;;;;;7.20;58.51;101735.22;5057782;28;45437;-48
2022/04/10 02:07:20;;;;;;;;;25.50;23.00;;;;;7.18;58.45;101736.28;5057765;28;45231;-47
2022/04/10 02:09:46;;;;;;;;;33.00;27.50;;;;;7.13;58.03;101727.81;5057746;28;45223;-44
2022/04/10 02:12:11;;;;;;;;;30.75;24.75;;;;;7.05;58.49;101725.66;5056798;28;45387;-46
2022/04/10 02:14:36;;;;;;;;;35.25;25.00;;;;;7.07;59.86;101736.13;5057664;28;46280;-46
2022/04/10 02:17:02;;;;;;;;;28.25;22.50;;;;;7.01;59.92;101734.75;5057704;28;45321;-45
2022/04/10 02:19:27;;;;;;;;;29.00;24.50;;;;;6.99;60.47;101728.69;5057787;28;45388;-47
2022/04/10 02:21:55;;;;;;;;;34.25;25.25;;;;;6.83;60.81;101715.63;5057890;28;45446;-45
2022/04/10 02:24:20;;;;;;;;;28.00;27.25;;;;;6.95;60.60;101737.78;5057226;28;47083;-46
2022/04/10 02:26:45;;;;;;;;;30.00;30.00;;;;;6.92;61.39;101738.00;5057329;28;45387;-45
2022/04/10 02:29:11;;;;;;;;;30.75;24.25;;;;;6.83;62.04;101742.06;5057603;28;45376;-46
2022/04/10 02:31:36;;;;;;;;;23.00;23.00;;;;;6.85;61.33;101741.97;5057752;28;45538;-44
2022/04/10 02:34:01;;;;;;;;;31.25;25.75;;;;;6.84;61.56;101735.00;5057119;28;45289;-45
2022/04/10 02:36:27;;;;;;;;;30.50;27.50;;;;;6.83;61.75;101739.44;5057195;28;45300;-45
2022/04/10 02:38:52;;;;;;;;;31.00;24.25;;;;;6.82;60.82;101735.06;5057026;28;45444;-46
2022/04/10 02:41:17;;;;;;;;;29.00;29.00;;;;;6.84;61.81;101748.22;5056833;28;45453;-45
2022/04/10 02:43:43;;;;;;;;;34.25;31.50;;;;;6.82;61.71;101747.44;5057178;28;45426;-45
2022/04/10 02:46:08;;;;;;;;;39.25;28.00;;;;;6.80;62.56;101750.19;5057274;28;45394;-45
2022/04/10 02:48:34;;;;;;;;;31.00;23.75;;;;;6.81;61.88;101758.97;5057561;28;45280;-45
2022/04/10 02:51:00;;;;;;;;;35.00;27.75;;;;;6.80;61.67;101744.06;5057475;28;45351;-46
2022/04/10 02:53:25;;;;;;;;;43.00;32.25;;;;;6.79;62.21;101747.66;5056958;28;45650;-44
2022/04/10 02:55:50;;;;;;;;;36.50;29.50;;;;;6.75;62.33;101750.50;5056574;28;45419;-45
2022/04/10 02:58:16;;;;;;;;;40.25;31.00;;;;;6.74;61.82;101753.22;5057224;28;45447;-45
2022/04/10 03:00:41;;;;;;;;;35.50;29.75;;;;;6.71;61.26;101748.13;5057490;28;45431;-45
2022/04/10 03:03:07;;;;;;;;;35.00;29.25;;;;;6.69;62.59;101748.22;5056888;28;46320;-45
2022/04/10 03:05:32;;;;;;;;;32.00;30.25;;;;;6.59;61.68;101739.19;5057145;28;45181;-45
2022/04/10 03:07:57;;;;;;;;;39.00;29.75;;;;;6.54;62.28;101749.19;5057197;28;45415;-46
2022/04/10 03:10:23;;;;;;;;;49.50;38.75;;;;;6.47;62.10;101750.53;5057152;28;45313;-46
2022/04/10 03:12:48;;;;;;;;;24.75;24.00;;;;;6.45;63.28;101749.78;5056889;28;46020;-47
2022/04/10 03:15:13;;;;;;;;;40.50;30.50;;;;;6.43;62.10;101755.16;5058845;28;45348;-45
2022/04/10 03:17:39;;;;;;;;;41.00;34.25;;;;;6.44;61.94;101753.34;5058767;28;45532;-45
2022/04/10 03:20:05;;;;;;;;;44.25;38.00;;;;;6.42;63.17;101752.59;5058151;28;45491;-46
2022/04/10 03:22:30;;;;;;;;;42.25;38.25;;;;;6.36;62.43;101755.63;5056773;28;45389;-47
2022/04/10 03:24:56;;;;;;;;;34.75;29.50;;;;;6.36;62.80;101759.13;5056590;28;45397;-46
2022/04/10 03:27:21;;;;;;;;;41.50;38.75;;;;;6.33;62.84;101766.41;5057011;28;45324;-45
2022/04/10 03:29:46;;;;;;;;;34.25;28.50;;;;;6.19;63.09;101754.00;5056826;28;45374;-47
2022/04/10 03:32:12;;;;;;;;;43.75;34.50;;;;;6.12;63.90;101745.63;5056560;28;45989;-44
2022/04/10 03:34:37;;;;;;;;;33.75;33.00;;;;;6.16;63.73;101765.63;5056589;28;45289;-45
2022/04/10 03:37:03;;;;;;;;;44.25;39.50;;;;;6.16;62.56;101765.63;5056623;28;45285;-48
2022/04/10 03:39:28;;;;;;;;;49.75;40.00;;;;;6.16;63.68;101776.19;5056898;28;45312;-46
2022/04/10 03:41:53;;;;;;;;;48.50;40.50;;;;;6.11;63.72;101761.53;5056219;28;46084;-45
2022/04/10 03:44:19;;;;;;;;;52.50;36.75;;;;;6.00;63.25;101754.28;5056547;28;45359;-45
2022/04/10 03:46:44;;;;;;;;;53.50;42.50;;;;;6.05;64.07;101770.69;5056556;28;45409;-47
2022/04/10 03:49:10;;;;;;;;;45.00;36.25;;;;;5.93;64.61;101763.50;5056767;28;45527;-50
2022/04/10 03:51:35;;;;;;;;;43.50;38.25;;;;;5.91;64.46;101760.09;5058036;28;45262;-46
2022/04/10 03:54:00;;;;;;;;;41.00;39.50;;;;;5.97;63.99;101770.31;5060040;28;45339;-46
2022/04/10 03:56:26;;;;;;;;;46.00;37.00;;;;;5.98;62.33;101769.34;5059756;28;45483;-45
2022/04/10 03:58:51;;;;;;;;;48.00;41.75;;;;;5.93;63.88;101763.50;5060113;28;45266;-45
2022/04/10 04:01:16;;;;;;;;;45.50;36.50;;;;;5.93;62.67;101760.88;5059752;28;46116;-46
2022/04/10 04:03:42;;;;;;;;;44.75;39.50;;;;;5.77;63.79;101745.06;5059611;28;45384;-45
2022/04/10 04:06:07;;;;;;;;;47.50;39.00;;;;;5.88;63.92;101763.75;5059881;28;45444;-46
2022/04/10 04:08:33;;;;;;;;;39.75;34.75;;;;;5.83;63.74;101762.34;5060031;28;45452;-47
2022/04/10 04:10:58;;;;;;;;;58.75;44.00;;;;;5.37;64.31;101702.53;5059219;28;47210;-46
2022/04/10 04:13:24;;;;;;;;;39.75;36.50;;;;;5.61;63.75;101745.13;5059715;28;45217;-45
2022/04/10 04:15:51;;;;;;;;;50.00;36.75;;;;;5.70;63.86;101763.06;5059398;28;45370;-45
2022/04/10 04:18:16;;;;;;;;;41.00;34.00;;;;;5.67;62.99;101757.94;5059772;28;45439;-47
2022/04/10 04:20:41;;;;;;;;;51.50;41.50;;;;;5.49;64.18;101737.94;5059491;28;45407;-46
2022/04/10 04:23:07;;;;;;;;;49.50;41.00;;;;;5.56;64.10;101755.06;5059348;28;45257;-47
2022/04/10 04:25:32;;;;;;;;;47.25;41.50;;;;;5.55;64.20;101766.59;5059364;28;45350;-47
2022/04/10 04:27:58;;;;;;;;;45.25;42.00;;;;;5.54;64.35;101761.41;5059669;28;45188;-46
2022/04/10 04:30:23;;;;;;;;;43.75;40.50;;;;;5.53;63.60;101765.84;5059295;28;46099;-46
2022/04/10 04:32:50;;;;;;;;;44.50;36.50;;;;;5.51;64.41;101768.53;5059470;28;45319;-46
2022/04/10 04:35:16;;;;;;;;;47.50;37.00;;;;;5.53;63.82;101772.91;5059435;28;45388;-47
2022/04/10 04:37:41;;;;;;;;;43.25;39.00;;;;;5.51;64.15;101772.97;5059428;28;45319;-46
2022/04/10 04:40:11;;;;;;;;;43.75;33.25;;;;;5.44;64.96;101776.94;5059068;28;45910;-46
2022/04/10 04:42:37;;;;;;;;;44.50;36.50;;;;;5.41;65.14;101779.75;5058786;28;45353;-47
2022/04/10 04:45:03;;;;;;;;;44.00;37.50;;;;;5.41;64.70;101785.88;5059336;28;45332;-47
2022/04/10 04:47:28;;;;;;;;;46.75;38.75;;;;;5.43;64.55;101778.69;5059462;28;45419;-46
2022/04/10 04:49:54;;;;;;;;;57.00;42.25;;;;;5.44;64.08;101788.34;5059015;28;45451;-45
2022/04/10 04:52:19;;;;;;;;;41.25;35.75;;;;;5.38;63.51;101783.41;5059020;28;45338;-46
2022/04/10 04:54:45;;;;;;;;;54.25;39.75;;;;;5.41;63.53;101799.06;5059097;28;45301;-45
2022/04/10 04:57:10;;;;;;;;;48.00;38.00;;;;;5.34;64.51;101800.34;5058829;28;45365;-45
2022/04/10 04:59:35;;;;;;;;;49.00;39.50;;;;;5.40;64.72;101812.34;5057399;28;47039;-45
2022/04/10 05:02:01;;;;;;;;;42.00;37.50;;;;;5.39;64.76;101811.47;5058950;28;45440;-45
2022/04/10 05:04:26;;;;;;;;;39.25;36.75;;;;;5.39;65.31;101813.25;5058487;28;45403;-47
2022/04/10 05:06:52;;;;;;;;;45.75;41.00;;;;;5.27;65.14;101788.44;5059046;28;45393;-45
2022/04/10 05:09:17;;;;;;;;;39.50;36.75;;;;;5.38;65.44;101804.50;5058706;28;45338;-45
2022/04/10 05:11:42;;;;;;;;;57.50;42.50;;;;;5.39;65.18;101805.34;5058509;28;45368;-46
2022/04/10 05:14:08;;;;;;;;;57.50;43.50;;;;;5.41;64.67;101811.41;5058964;28;45243;-47
2022/04/10 05:16:33;;;;;;;;;54.75;42.00;;;;;5.33;65.39;101803.91;5058744;28;45580;-46
2022/04/10 05:18:58;;;;;;;;;53.25;44.75;;;;;5.41;65.15;101811.41;5058463;28;46054;-46
2022/04/10 05:21:24;;;;;;;;;47.50;43.75;;;;;5.38;64.81;101806.28;5058612;28;45273;-46
2022/04/10 05:23:49;;;;;;;;;54.50;43.25;;;;;5.42;65.35;101803.38;5058617;28;45300;-45
2022/04/10 05:26:14;;;;;;;;;39.00;35.50;;;;;5.38;64.03;101807.13;5058733;28;45297;-45
2022/04/10 05:28:40;;;;;;;;;42.75;40.25;;;;;5.45;64.94;101816.41;5058112;28;45937;-46
2022/04/10 05:31:05;;;;;;;;;50.00;40.75;;;;;5.45;64.26;101820.84;5060491;28;45336;-45
2022/04/10 05:33:35;;;;;;;;;49.75;42.25;;;;;5.36;64.53;101797.63;5060686;28;45783;-44
2022/04/10 05:36:00;;;;;;;;;46.00;38.75;;;;;5.43;63.68;101818.28;5059459;28;45827;-47
2022/04/10 05:38:26;;;;;;;;;47.75;40.25;;;;;5.46;64.77;101825.19;5060597;28;45332;-46
2022/04/10 05:40:54;;;;;;;;;50.25;39.50;;;;;5.49;64.81;101823.22;5059599;28;45383;-45
2022/04/10 05:43:21;;;;;;;;;51.00;42.25;;;;;5.50;65.16;101835.47;5059570;28;45410;-48
2022/04/10 05:45:47;;;;;;;;;54.50;41.50;;;;;5.51;65.35;101826.59;5059614;28;45403;-47
2022/04/10 05:48:13;;;;;;;;;46.00;41.75;;;;;5.55;64.83;101826.44;5059519;28;46339;-47
2022/04/10 05:50:38;;;;;;;;;45.75;41.00;;;;;5.66;64.87;101839.88;5059177;28;45499;-46
2022/04/10 05:53:04;;;;;;;;;51.25;38.75;;;;;5.66;64.33;101837.25;5058447;28;45440;-45
2022/04/10 05:55:29;;;;;;;;;39.50;35.75;;;;;5.66;64.35;101831.97;5057854;28;45447;-49
2022/04/10 05:57:56;;;;;;;;;52.00;37.50;;;;;5.54;64.55;101808.91;5057752;28;45863;-45
2022/04/10 06:00:23;;;;;;;;;48.25;39.75;;;;;5.75;64.28;101844.63;5057811;28;45226;-46
2022/04/10 06:02:49;;;;;;;;;43.50;36.50;;;;;5.72;63.81;101839.53;5057847;28;45519;-46
2022/04/10 06:05:14;;;;;;;;;40.00;40.00;;;;;5.80;64.27;101849.66;5058185;28;45388;-47
2022/04/10 06:07:40;;;;;;;;;41.75;37.25;;;;;5.84;64.24;101844.09;5057554;28;45309;-45
2022/04/10 06:10:06;;;;;;;;;40.50;37.50;;;;;5.89;63.72;101847.31;5057855;28;45358;-46
2022/04/10 06:12:31;;;;;;;;;44.25;36.75;;;;;5.82;63.26;101843.34;5057653;28;45467;-46
2022/04/10 06:14:57;;;;;;;;;55.00;44.50;;;;;5.88;64.11;101839.50;5056948;28;45470;-45
2022/04/10 06:17:22;;;;;;;;;43.75;39.75;;;;;5.92;63.08;101854.25;5057561;28;45360;-48
2022/04/10 06:19:47;;;;;;;;;51.00;43.00;;;;;5.94;64.19;101855.88;5057420;28;45550;-45
2022/04/10 06:22:14;;;;;;;;;49.25;41.00;;;;;6.00;63.51;101854.66;5057733;28;45339;-47
2022/04/10 06:24:40;;;;;;;;;55.75;45.50;;;;;6.04;64.07;101858.81;5057933;28;45469;-46
2022/04/10 06:27:05;;;;;;;;;44.00;40.00;;;;;6.09;63.48;101859.38;5056149;28;46199;-45
2022/04/10 06:29:30;;;;;;;;;55.00;45.25;;;;;6.10;64.10;101855.78;5057171;28;45440;-45
2022/04/10 06:31:56;;;;;;;;;58.75;45.00;;;;;6.16;63.90;101857.25;5057710;28;45448;-48
2022/04/10 06:34:21;;;;;;;;;50.25;39.75;;;;;6.20;63.00;101859.63;5057808;28;45303;-46
2022/04/10 06:36:48;;;;;;;;;52.75;46.25;;;;;6.24;63.17;101858.50;5057364;28;46937;-46
2022/04/10 06:39:15;;;;;;;;;47.25;38.50;;;;;6.29;62.91;101860.00;5057132;28;45360;-47
2022/04/10 06:41:41;;;;;;;;;49.25;44.25;;;;;6.34;63.45;101853.50;5055846;28;45369;-47
2022/04/10 06:44:07;;;;;;;;;64.00;45.00;;;;;6.38;63.95;101849.72;5056969;28;45815;-47
2022/04/10 06:46:33;;;;;;;;;68.75;51.00;;;;;6.37;63.61;101840.09;5056922;28;45307;-48
2022/04/10 06:48:58;;;;;;;;;54.75;45.00;;;;;6.49;63.67;101849.94;5056972;28;45328;-46
2022/04/10 06:51:23;;;;;;;;;65.00;47.75;;;;;6.56;63.23;101855.69;5057101;28;45836;-46
2022/04/10 06:53:49;;;;;;;;;49.00;44.00;;;;;6.57;62.79;101843.31;5057218;28;45809;-46
2022/04/10 06:56:15;;;;;;;;;66.25;48.75;;;;;6.68;62.94;101852.28;5056604;28;46280;-47
2022/04/10 06:58:41;;;;;;;;;60.50;48.50;;;;;6.78;63.18;101851.72;5056742;28;45345;-48
2022/04/10 07:01:08;;;;;;;;;51.00;44.00;;;;;6.88;62.49;101847.56;5056790;28;45495;-45
2022/04/10 07:03:34;;;;;;;;;58.75;46.75;;;;;7.01;62.20;101848.50;5057180;28;45464;-48
2022/04/10 07:06:00;;;;;;;;;51.00;37.25;;;;;7.13;61.93;101842.44;5056514;28;46175;-47
2022/04/10 07:08:26;;;;;;;;;56.25;45.00;;;;;7.38;61.39;101846.16;5056735;28;45503;-46
2022/04/10 07:10:52;;;;;;;;;56.75;45.25;;;;;7.57;59.74;101833.41;5056776;28;45599;-46
2022/04/10 07:13:18;;;;;;;;;50.50;40.75;;;;;8.07;59.12;101850.41;5056942;28;45862;-46
2022/04/10 07:15:45;;;;;;;;;51.50;41.25;;;;;8.83;58.97;101846.09;5056648;28;47022;-46
2022/04/10 07:18:11;;;;;;;;;59.75;45.00;;;;;9.67;56.59;101843.47;5056854;28;45411;-47
2022/04/10 07:20:36;;;;;;;;;44.50;36.25;;;;;10.77;56.60;101838.69;5057136;28;45425;-45
2022/04/10 07:25:45;;;;;;;;;42.25;37.75;;;;;13.40;50.54;101835.09;5057425;28;45391;-48
2022/04/10 07:28:11;;;;;;;;;42.75;35.00;;;;;14.35;41.82;101807.59;5059826;28;45381;-47
2022/04/10 07:30:36;;;;;;;;;36.25;30.50;;;;;15.29;44.20;101827.06;5060068;28;45595;-46
2022/04/10 07:33:02;;;;;;;;;28.25;25.25;;;;;16.04;41.60;101824.94;5060452;28;45195;-48
2022/04/10 07:35:27;;;;;;;;;34.25;29.00;;;;;16.66;38.60;101819.47;5058295;28;47250;-49
2022/04/10 07:37:52;;;;;;;;;30.50;28.50;;;;;17.43;37.52;101829.16;5060205;28;45524;-50
2022/04/10 07:40:21;;;;;;;;;23.00;16.67;;;;;18.07;35.78;101821.31;5059481;28;45317;-47
2022/04/10 07:42:47;;;;;;;;;31.00;27.00;;;;;18.64;32.48;101828.47;5060400;28;45445;-48
2022/04/10 07:47:58;;;;;;;;;22.67;17.67;;;;;20.07;31.89;101819.06;5058996;28;45377;-53
2022/04/10 07:50:23;;;;;;;;;25.33;21.00;;;;;20.40;34.58;101824.13;5060121;28;45323;-46
2022/04/10 07:52:49;;;;;;;;;27.33;23.33;;;;;20.77;30.55;101830.50;5060272;28;45477;-43
2022/04/10 07:55:14;;;;;;;;;21.33;20.00;;;;;21.25;31.04;101839.84;5059613;28;46059;-46
2022/04/10 07:57:39;;;;;;;;;26.00;23.33;;;;;21.61;30.40;101829.00;5059771;28;45491;-45
2022/04/10 08:00:05;;;;;;;;;27.33;23.33;;;;;22.08;29.21;101827.59;5059048;28;45400;-45
2022/04/10 08:02:31;;;;;;;;;28.00;24.33;;;;;22.29;28.14;101823.16;5060051;28;45371;-45
2022/04/10 08:04:56;;;;;;;;;26.00;25.33;;;;;22.41;29.77;101825.13;5059597;28;45516;-45
2022/04/10 08:07:21;;;;;;;;;26.00;19.33;;;;;22.80;27.63;101820.97;5059236;28;45380;-46
2022/04/10 08:09:47;;;;;;;;;22.00;16.00;;;;;22.93;26.57;101811.25;5059551;28;45436;-46
2022/04/10 08:12:12;;;;;;;;;19.00;17.00;;;;;22.65;26.72;101825.69;5060077;28;45399;-45
2022/04/10 08:14:38;;;;;;;;;11.67;10.67;;;;;22.46;26.57;101832.69;5059246;28;46239;-44
2022/04/10 08:17:03;;;;;;;;;13.33;12.00;;;;;22.51;25.92;101829.38;5059550;28;45204;-46
2022/04/10 08:19:29;;;;;;;;;10.67;10.67;;;;;22.64;30.49;101824.84;5059682;28;45380;-47
2022/04/10 08:21:54;;;;;;;;;11.00;9.00;;;;;22.86;25.13;101816.63;5059631;28;45425;-46
2022/04/10 08:24:19;;;;;;;;;9.67;9.00;;;;;22.12;24.44;101817.16;5059368;28;46093;-46
2022/04/10 08:26:45;;;;;;;;;10.25;9.00;;;;;21.49;25.63;101817.06;5059386;28;45451;-46
2022/04/10 08:29:10;;;;;;;;;11.00;9.75;;;;;21.59;26.93;101820.25;5059134;28;45371;-46
2022/04/10 08:31:36;;;;;;;;;8.50;7.00;;;;;21.67;25.65;101825.56;5059569;28;45320;-46
2022/04/10 08:34:01;;;;;;;;;8.75;7.00;;;;;21.76;24.98;101820.84;5059076;28;45328;-46
2022/04/10 08:36:26;;;;;;;;;14.75;11.50;;;;;21.56;27.46;101828.75;5059233;28;45356;-47
2022/04/10 08:38:52;;;;;;;;;23.00;16.00;;;;;21.06;27.15;101822.34;5058245;28;45604;-45
2022/04/10 08:41:20;;;;;;;;;13.67;10.67;;;;;21.06;30.95;101822.34;5059590;28;45341;-46
2022/04/10 08:43:46;;;;;;;;;13.00;11.00;;;;;21.26;28.06;101825.28;5058906;28;46154;-45
2022/04/10 08:46:15;;;;;;;;;7.50;7.25;;;;;21.55;26.25;101829.81;5058899;28;45514;-45
2022/04/10 08:48:41;;;;;;;;;9.50;7.00;;;;;21.46;25.26;101825.53;5059291;28;45235;-44
2022/04/10 08:51:07;;;;;;;;;9.00;7.00;;;;;21.39;25.18;101828.16;5059241;28;45355;-48
2022/04/10 08:53:33;;;;;;;;;11.00;9.00;;;;;21.57;31.71;101830.44;5058844;28;46269;-44
2022/04/10 08:56:01;;;;;;;;;13.00;11.00;;;;;21.76;25.88;101825.41;5058555;28;45337;-44
2022/04/10 08:58:26;;;;;;;;;10.50;8.75;;;;;22.10;25.43;101822.78;5058801;28;45342;-44
2022/04/10 09:00:51;;;;;;;;;10.75;9.75;;;;;23.22;27.03;101829.09;5058913;28;45246;-48
2022/04/10 09:03:18;;;;;;;;;14.50;11.50;;;;;25.09;23.47;101823.41;5058703;28;46255;-45
2022/04/10 09:05:59;;;;;;;;;11.50;10.50;;;;;27.22;20.13;101817.75;5058698;28;45341;-48
2022/04/10 09:08:25;;;;;;;;;6.00;6.00;;;;;28.72;20.81;101823.88;5058862;28;45324;-47
2022/04/10 09:10:56;;;;;;;;;9.25;7.75;;;;;29.54;21.56;101829.09;5059032;28;45376;-46
2022/04/10 09:13:36;;;;;;;;;5.40;2.40;;;;;30.16;17.36;101826.31;5058578;28;46143;-48
2022/04/10 09:16:08;;;;;;;;;7.40;5.80;;;;;31.25;17.29;101824.69;5058319;28;45442;-46
2022/04/10 09:18:51;;;;;;;;;8.00;6.00;;;;;31.98;15.52;101808.59;5058683;28;45451;-44
2022/04/10 09:21:20;;;;;;;;;6.60;3.80;;;;;33.17;17.88;101818.06;5058765;28;45384;-47
2022/04/10 09:24:02;;;;;;;;;5.80;4.40;;;;;33.93;14.92;101809.00;5058543;28;45365;-46
2022/04/10 09:26:46;;;;;;;;;6.20;5.20;;;;;34.62;14.19;101801.16;5058425;28;45269;-44
2022/04/10 09:29:13;;;;;;;;;3.80;3.60;;;;;35.46;15.74;101811.16;5058986;28;45295;-45
2022/04/10 09:31:38;;;;;;;;;4.60;4.60;;;;;35.54;12.98;101800.63;5058807;28;46030;-45
2022/04/10 09:34:08;;;;;;;;;3.25;3.25;;;;;34.77;14.92;101805.78;5058402;28;46213;-45
2022/04/10 09:36:42;;;;;;;;;6.60;4.20;;;;;34.67;13.21;101810.22;5058261;28;45313;-49
2022/04/10 09:39:16;;;;;;;;;4.60;4.60;;;;;35.67;12.69;101800.78;5058780;28;45274;-46
2022/04/10 09:41:44;;;;;;;;;4.40;4.00;;;;;36.03;12.28;101791.31;5058678;28;45446;-46
2022/04/10 09:44:17;;;;;;;;;4.80;2.80;;;;;35.80;13.87;101802.06;5058174;28;46652;-44
2022/04/10 09:46:43;;;;;;;;;4.00;4.00;;;;;36.19;11.88;101781.72;5058102;28;45517;-46
2022/04/10 09:49:17;;;;;;;;;4.60;4.60;;;;;37.25;11.33;101803.66;5058041;28;45161;-44
2022/04/10 09:52:01;;;;;;;;;2.80;2.80;;;;;37.82;11.73;101801.63;5058504;28;45294;-47
2022/04/10 09:54:32;;;;;;;;;3.20;3.00;;;;;37.97;10.59;101794.16;5057585;28;45416;-45
2022/04/10 09:57:01;;;;;;;;;4.40;3.80;;;;;37.46;11.77;101804.16;5057859;28;45426;-49
2022/04/10 09:59:34;;;;;;;;;6.00;5.00;;;;;38.11;11.23;101793.03;5058335;27;45397;-45
2022/04/10 10:02:03;;;;;;;;;7.80;3.80;;;;;39.08;10.17;101798.53;5058302;28;45328;-45
2022/04/10 10:04:29;;;;;;;;;3.20;3.20;;;;;39.73;11.52;101789.69;5058067;28;45285;-46
2022/04/10 10:06:56;;;;;;;;;5.00;4.00;;;;;40.03;10.19;101790.81;5057790;28;45333;-45
2022/04/10 10:09:22;;;;;;;;;3.75;3.25;;;;;40.31;9.66;101785.06;5058065;28;45404;-46
2022/04/10 10:11:49;;;;;;;;;3.75;3.75;;;;;39.94;12.56;101786.38;5057832;28;45502;-44
2022/04/10 10:14:16;;;;;;;;;4.80;4.00;;;;;39.83;11.69;101778.31;5057727;28;46408;-45
2022/04/10 10:16:43;;;;;;;;;6.20;2.20;;;;;40.03;9.73;101778.88;5057459;28;45378;-45
2022/04/10 10:19:10;;;;;;;;;3.20;3.20;;;;;39.74;9.08;101773.81;5057948;28;45443;-47
2022/04/10 10:21:36;;;;;;;;;5.80;4.00;;;;;39.53;9.87;101773.50;5058015;28;45253;-46
2022/04/10 10:24:04;;;;;;;;;3.40;3.40;;;;;39.95;11.97;101777.72;5057719;28;46119;-48
2022/04/10 10:26:47;;;;;;;;;4.00;3.00;;;;;40.14;9.33;101780.25;5057737;28;45367;-45
2022/04/10 10:29:48;;;;;;;;;3.00;3.00;;;;;40.43;9.51;101773.28;5057831;28;45547;-45
2022/04/10 10:32:25;;;;;;;;;4.00;4.00;;;;;40.57;9.12;101760.88;5015580;28;45389;-47
2022/04/10 10:34:54;;;;;;;;;6.40;3.20;;;;;40.80;8.85;101758.78;5015169;28;45412;-46
2022/04/10 10:37:31;;;;;;;;;5.00;4.00;;;;;41.41;10.47;101763.53;5015186;28;45476;-46
2022/04/10 10:39:58;;;;;;;;;7.00;4.40;;;;;42.01;8.78;101760.56;5015336;28;45474;-47
2022/04/10 10:42:24;;;;;;;;;9.00;5.60;;;;;42.73;9.34;101758.69;5015312;28;45361;-44
2022/04/10 10:44:50;;;;;;;;;4.00;4.00;;;;;42.92;10.56;101754.59;5015129;28;46521;-44
2022/04/10 10:47:22;;;;;;;;;5.00;5.00;;;;;43.23;9.05;101754.97;5014872;28;45515;-45
2022/04/10 10:49:49;;;;;;;;;5.60;5.00;;;;;43.31;8.34;101751.25;5015109;28;45423;-44
2022/04/10 10:52:15;;;;;;;;;6.20;6.20;;;;;43.04;8.48;101749.88;5015250;28;45407;-46
2022/04/10 10:54:50;;;;;;;;;5.50;5.50;;;;;43.31;9.10;101756.84;5014248;28;45418;-46
2022/04/10 10:57:42;;;;;;;;;5.20;4.40;;;;;43.26;8.52;101747.88;5014898;28;45383;-47
2022/04/10 11:00:08;;;;;;;;;6.20;6.20;;;;;42.58;8.01;101750.88;5015010;28;45531;-46
2022/04/10 11:02:35;;;;;;;;;7.00;7.00;;;;;42.58;7.68;101742.50;5014770;28;45620;-46
2022/04/10 11:05:05;;;;;;;;;6.00;6.00;;;;;43.00;9.17;101746.09;5014954;28;46994;-44
2022/04/10 11:07:30;;;;;;;;;6.00;6.00;;;;;43.06;9.21;101732.75;5023021;28;45359;-46
2022/04/10 11:10:02;;;;;;;;;6.25;5.00;;;;;42.89;9.33;101732.88;5037147;28;45383;-47
2022/04/10 11:12:47;;;;;;;;;0.20;0.20;;;;;42.86;8.41;101728.81;5037350;28;45329;-47
2022/04/10 11:15:19;;;;;;;;;6.00;6.00;;;;;42.42;9.59;101721.88;5036878;28;46230;-45
2022/04/10 11:17:45;;;;;;;;;5.00;5.00;;;;;41.31;8.19;101720.81;5036530;28;45265;-50
2022/04/10 11:20:12;;;;;;;;;9.20;5.40;;;;;40.61;8.12;101708.88;5037085;28;45221;-45
2022/04/10 11:22:53;;;;;;;;;4.60;4.60;;;;;40.10;8.48;101717.94;5037246;28;45293;-48